createdAt,value
2019-04-03T00:00:39.268Z,17.70
2019-04-03T00:03:08.464Z,20.30
2019-04-03T00:05:37.719Z,16.75
2019-04-03T00:08:07.110Z,17.25
2019-04-03T00:10:38.084Z,18.02
2019-04-03T00:13:10.452Z,17.32
2019-04-03T00:15:38.589Z,19.20
2019-04-03T00:18:07.809Z,18.75
2019-04-03T00:20:36.981Z,19.87
2019-04-03T00:23:06.151Z,16.77
2019-04-03T00:25:54.756Z,14.60
2019-04-03T00:28:24.318Z,18.02
2019-04-03T00:30:53.524Z,16.07
2019-04-03T00:33:23.575Z,18.80
2019-04-03T00:35:53.909Z,19.07
2019-04-03T00:38:24.358Z,17.00
2019-04-03T00:40:55.152Z,19.55
2019-04-03T00:43:25.070Z,18.57
2019-04-03T00:45:55.200Z,20.40
2019-04-03T00:48:25.696Z,22.50
2019-04-03T00:50:57.320Z,23.02
2019-04-03T00:53:27.711Z,23.27
2019-04-03T00:55:57.566Z,24.85
2019-04-03T00:58:33.246Z,25.25
2019-04-03T01:01:02.484Z,26.50
2019-04-03T01:03:31.784Z,24.27
2019-04-03T01:06:01.035Z,24.02
2019-04-03T01:08:30.211Z,24.20
2019-04-03T01:11:00.459Z,22.75
2019-04-03T01:13:31.339Z,23.45
2019-04-03T01:16:02.440Z,25.00
2019-04-03T01:18:34.342Z,25.77
2019-04-03T01:21:06.093Z,23.25
2019-04-03T01:23:37.041Z,28.57
2019-04-03T01:26:06.308Z,27.62
2019-04-03T01:28:35.484Z,27.80
2019-04-03T01:31:04.649Z,27.00
2019-04-03T01:33:33.828Z,30.08
2019-04-03T01:36:22.558Z,25.90
2019-04-03T01:38:51.861Z,30.65
2019-04-03T01:41:21.602Z,28.95
2019-04-03T01:43:53.164Z,29.90
2019-04-03T01:46:21.919Z,28.45
2019-04-03T01:48:52.401Z,26.52
2019-04-03T01:51:21.573Z,25.70
2019-04-03T01:53:50.752Z,27.98
2019-04-03T01:56:21.099Z,29.23
2019-04-03T01:58:50.249Z,28.87
2019-04-03T02:01:19.498Z,29.15
2019-04-03T02:03:48.652Z,31.97
2019-04-03T02:06:17.951Z,30.05
2019-04-03T02:08:47.152Z,30.12
2019-04-03T02:11:16.793Z,30.80
2019-04-03T02:13:47.268Z,28.38
2019-04-03T02:16:16.462Z,32.48
2019-04-03T02:18:45.628Z,32.88
2019-04-03T02:21:14.792Z,29.45
2019-04-03T02:23:43.965Z,27.48
2019-04-03T02:26:13.255Z,30.45
2019-04-03T02:28:42.418Z,29.87
2019-04-03T02:31:11.791Z,29.70
2019-04-03T02:33:41.032Z,30.55
2019-04-03T02:36:12.506Z,28.50
2019-04-03T02:38:41.097Z,30.75
2019-04-03T02:41:10.348Z,31.93
2019-04-03T02:43:39.816Z,28.87
2019-04-03T02:46:09.256Z,29.02
2019-04-03T02:48:38.994Z,30.27
2019-04-03T02:51:08.459Z,30.43
2019-04-03T02:53:37.728Z,31.95
2019-04-03T02:56:26.359Z,28.23
2019-04-03T02:58:55.730Z,28.02
2019-04-03T03:01:25.333Z,31.23
2019-04-03T03:03:54.767Z,30.08
2019-04-03T03:06:23.944Z,31.75
2019-04-03T03:08:53.318Z,32.45
2019-04-03T03:11:24.467Z,29.52
2019-04-03T03:13:53.436Z,31.75
2019-04-03T03:16:22.722Z,29.92
2019-04-03T03:18:52.092Z,30.23
2019-04-03T03:21:21.445Z,32.28
2019-04-03T03:23:50.630Z,33.75
2019-04-03T03:26:19.801Z,29.85
2019-04-03T03:28:48.968Z,30.62
2019-04-03T03:31:18.964Z,29.90
2019-04-03T03:33:48.643Z,30.50
2019-04-03T03:36:23.208Z,30.12
2019-04-03T03:38:49.917Z,29.20
2019-04-03T03:41:22.917Z,31.50
2019-04-03T03:43:50.858Z,31.80
2019-04-03T03:46:20.325Z,30.10
2019-04-03T03:48:50.457Z,29.72
2019-04-03T03:51:19.762Z,30.90
2019-04-03T03:53:48.990Z,32.42
2019-04-03T03:56:19.434Z,33.42
2019-04-03T03:58:49.199Z,33.67
2019-04-03T04:01:18.941Z,30.48
2019-04-03T04:03:49.325Z,37.10
2019-04-03T04:06:18.566Z,31.07
2019-04-03T04:08:48.025Z,30.08
2019-04-03T04:11:17.611Z,33.28
2019-04-03T04:13:48.706Z,29.67
2019-04-03T04:16:18.382Z,28.90
2019-04-03T04:19:07.651Z,32.50
2019-04-03T04:21:36.915Z,28.92
2019-04-03T04:24:06.395Z,31.20
2019-04-03T04:26:35.753Z,29.63
2019-04-03T04:29:04.935Z,30.57
2019-04-03T04:31:34.174Z,36.38
2019-04-03T04:34:03.380Z,31.93
2019-04-03T04:36:32.538Z,35.85
2019-04-03T04:39:01.877Z,40.00
2019-04-03T04:41:32.581Z,35.83
2019-04-03T04:44:02.375Z,36.80
2019-04-03T04:46:31.689Z,38.33
2019-04-03T04:49:01.247Z,34.75
2019-04-03T04:51:30.490Z,36.60
2019-04-03T04:54:00.361Z,35.08
2019-04-03T04:56:29.811Z,36.00
2019-04-03T04:58:58.997Z,36.77
2019-04-03T05:01:28.212Z,36.95
2019-04-03T05:03:57.399Z,39.83
2019-04-03T05:06:28.644Z,44.85
2019-04-03T05:08:57.449Z,43.52
2019-04-03T05:11:28.137Z,38.25
2019-04-03T05:13:57.337Z,38.75
2019-04-03T05:16:26.573Z,39.73
2019-04-03T05:19:08.393Z,38.00
2019-04-03T05:21:26.742Z,40.30
2019-04-03T05:23:56.669Z,41.02
2019-04-03T05:26:26.822Z,41.25
2019-04-03T05:28:57.750Z,43.70
2019-04-03T05:31:27.123Z,37.88
2019-04-03T05:33:56.492Z,38.23
2019-04-03T05:36:26.059Z,37.55
2019-04-03T05:38:56.237Z,38.35
2019-04-03T05:41:27.430Z,40.78
2019-04-03T05:43:58.481Z,38.95
2019-04-03T05:46:32.250Z,38.30
2019-04-03T05:49:02.327Z,42.35
2019-04-03T05:51:31.497Z,39.18
2019-04-03T05:54:02.173Z,36.50
2019-04-03T05:56:31.368Z,38.23
2019-04-03T05:59:02.626Z,38.95
2019-04-03T06:01:32.694Z,36.13
2019-04-03T06:04:01.848Z,39.35
2019-04-03T06:06:31.023Z,41.68
2019-04-03T06:09:00.381Z,42.05
2019-04-03T06:11:29.826Z,37.15
2019-04-03T06:13:58.973Z,41.00
2019-04-03T06:16:28.159Z,34.98
2019-04-03T06:18:59.050Z,36.95
2019-04-03T06:21:29.116Z,42.33
2019-04-03T06:23:58.388Z,40.30
2019-04-03T06:26:27.611Z,40.17
2019-04-03T06:28:56.785Z,44.20
2019-04-03T06:31:33.259Z,51.55
2019-04-03T06:34:02.514Z,41.58
2019-04-03T06:36:31.683Z,43.17
2019-04-03T06:39:00.863Z,40.67
2019-04-03T06:41:30.460Z,42.58
2019-04-03T06:43:59.840Z,39.73
2019-04-03T06:46:29.887Z,43.78
2019-04-03T06:48:59.361Z,39.80
2019-04-03T06:51:28.534Z,42.75
2019-04-03T06:54:11.421Z,39.85
2019-04-03T06:56:41.278Z,41.00
2019-04-03T06:59:11.994Z,43.15
2019-04-03T07:01:41.145Z,39.50
2019-04-03T07:04:10.351Z,45.03
2019-04-03T07:06:39.710Z,45.98
2019-04-03T07:09:21.654Z,42.75
2019-04-03T07:11:43.159Z,43.25
2019-04-03T07:14:11.346Z,46.02
2019-04-03T07:16:40.558Z,45.45
2019-04-03T07:19:09.912Z,42.90
2019-04-03T07:21:40.301Z,50.63
2019-04-03T07:24:09.719Z,46.65
2019-04-03T07:26:39.162Z,42.20
2019-04-03T07:29:11.044Z,40.12
2019-04-03T07:31:39.214Z,43.25
2019-04-03T07:34:08.387Z,46.48
2019-04-03T07:36:39.562Z,42.10
2019-04-03T07:39:10.881Z,44.03
2019-04-03T07:41:41.326Z,42.00
2019-04-03T07:44:10.329Z,39.60
2019-04-03T07:46:39.662Z,46.77
2019-04-03T07:49:09.783Z,44.50
2019-04-03T07:51:39.200Z,43.83
2019-04-03T07:54:08.452Z,39.98
2019-04-03T07:56:38.044Z,39.10
2019-04-03T07:59:07.352Z,35.40
2019-04-03T08:01:36.592Z,35.43
2019-04-03T08:04:05.894Z,34.38
2019-04-03T08:06:36.029Z,33.40
2019-04-03T08:09:09.938Z,35.55
2019-04-03T08:11:39.686Z,32.90
2019-04-03T08:14:10.073Z,33.00
2019-04-03T08:16:41.698Z,32.23
2019-04-03T08:19:10.358Z,35.35
2019-04-03T08:21:39.513Z,29.80
2019-04-03T08:24:08.746Z,26.48
2019-04-03T08:26:39.184Z,30.90
2019-04-03T08:29:08.569Z,29.23
2019-04-03T08:31:37.743Z,29.05
2019-04-03T08:34:15.584Z,26.95
2019-04-03T08:36:39.448Z,29.15
2019-04-03T08:39:08.712Z,29.50
2019-04-03T08:41:38.442Z,30.82
2019-04-03T08:44:09.010Z,27.30
2019-04-03T08:46:38.708Z,29.90
2019-04-03T08:49:08.378Z,26.37
2019-04-03T08:51:37.955Z,31.25
2019-04-03T08:54:09.896Z,27.87
2019-04-03T08:56:38.134Z,28.23
2019-04-03T08:59:07.322Z,28.57
2019-04-03T09:01:38.182Z,30.02
2019-04-03T09:04:07.997Z,25.48
2019-04-03T09:06:37.412Z,28.42
2019-04-03T09:09:09.784Z,29.65
2019-04-03T09:11:39.044Z,27.82
2019-04-03T09:14:08.222Z,27.32
2019-04-03T09:16:37.378Z,26.97
2019-04-03T09:19:09.971Z,28.90
2019-04-03T09:21:38.876Z,29.67
2019-04-03T09:24:08.297Z,29.70
2019-04-03T09:26:38.234Z,29.40
2019-04-03T09:29:07.613Z,27.32
2019-04-03T09:31:36.790Z,27.75
2019-04-03T09:34:05.953Z,28.47
2019-04-03T09:36:35.559Z,29.98
2019-04-03T09:39:08.504Z,27.35
2019-04-03T09:41:37.732Z,27.40
2019-04-03T09:44:06.933Z,26.57
2019-04-03T09:46:36.622Z,25.88
2019-04-03T09:49:07.559Z,26.62
2019-04-03T09:51:37.062Z,25.97
2019-04-03T09:54:07.091Z,25.43
2019-04-03T09:56:37.508Z,23.60
2019-04-03T09:59:08.133Z,27.30
2019-04-03T10:01:37.654Z,25.23
2019-04-03T10:04:07.123Z,25.23
2019-04-03T10:06:36.330Z,24.32
2019-04-03T10:09:07.089Z,25.37
2019-04-03T10:11:38.466Z,24.50
2019-04-03T10:14:07.308Z,24.63
2019-04-03T10:16:36.484Z,26.12
2019-04-03T10:19:05.878Z,23.30
2019-04-03T10:21:35.263Z,24.20
2019-04-03T10:24:04.745Z,26.85
2019-04-03T10:26:33.981Z,24.10
2019-04-03T10:29:03.166Z,22.98
2019-04-03T10:31:32.654Z,21.70
2019-04-03T10:34:03.496Z,24.82
2019-04-03T10:36:33.077Z,21.30
2019-04-03T10:39:04.243Z,21.80
2019-04-03T10:41:33.780Z,23.00
2019-04-03T10:44:03.720Z,23.65
2019-04-03T10:46:33.248Z,21.48
2019-04-03T10:49:02.434Z,22.62
2019-04-03T10:51:32.901Z,22.42
2019-04-03T10:54:02.317Z,24.00
2019-04-03T10:56:32.252Z,22.40
2019-04-03T10:59:10.642Z,22.65
2019-04-03T11:01:33.435Z,23.70
2019-04-03T11:04:02.859Z,22.48
2019-04-03T11:06:32.299Z,19.10
2019-04-03T11:09:02.173Z,24.43
2019-04-03T11:11:32.785Z,19.05
2019-04-03T11:14:03.067Z,24.02
2019-04-03T11:16:33.212Z,20.95
2019-04-03T11:19:06.115Z,20.08
2019-04-03T11:21:34.782Z,24.85
2019-04-03T11:24:04.395Z,21.87
2019-04-03T11:26:34.847Z,19.92
2019-04-03T11:29:04.047Z,19.27
2019-04-03T11:31:39.346Z,20.95
2019-04-03T11:34:04.673Z,17.05
2019-04-03T11:36:34.861Z,18.87
2019-04-03T11:39:13.555Z,17.37
2019-04-03T11:41:38.244Z,16.67
2019-04-03T11:44:07.422Z,13.58
2019-04-03T11:46:36.610Z,17.07
2019-04-03T11:49:05.817Z,18.50
2019-04-03T11:51:35.170Z,18.40
2019-04-03T11:54:06.786Z,21.85
2019-04-03T11:56:35.836Z,17.20
2019-04-03T11:59:05.271Z,11.93
2019-04-03T12:01:34.511Z,10.72
2019-04-03T12:04:03.878Z,9.20
2019-04-03T12:06:33.246Z,12.20
2019-04-03T12:09:02.548Z,13.20
2019-04-03T12:11:32.763Z,12.93
2019-04-03T12:14:02.004Z,15.18
2019-04-03T12:16:31.254Z,13.80
2019-04-03T12:19:00.834Z,14.73
2019-04-03T12:21:30.222Z,12.78
2019-04-03T12:23:59.581Z,13.70
2019-04-03T12:26:29.045Z,12.40
2019-04-03T12:28:58.193Z,16.77
2019-04-03T12:31:27.856Z,14.20
2019-04-03T12:34:03.382Z,13.48
2019-04-03T12:36:28.344Z,14.15
2019-04-03T12:38:57.730Z,15.00
2019-04-03T12:41:27.917Z,12.20
2019-04-03T12:43:57.274Z,13.10
2019-04-03T12:46:41.074Z,12.75
2019-04-03T12:49:09.738Z,17.42
2019-04-03T12:51:39.068Z,15.43
2019-04-03T12:54:12.284Z,12.37
2019-04-03T12:56:40.354Z,15.13
2019-04-03T12:59:10.025Z,13.80
2019-04-03T13:01:40.450Z,14.73
2019-04-03T13:04:09.711Z,13.15
2019-04-03T13:06:41.885Z,13.03
2019-04-03T13:09:10.401Z,13.68
2019-04-03T13:11:40.107Z,13.20
2019-04-03T13:14:09.634Z,13.72
2019-04-03T13:16:41.793Z,12.43
2019-04-03T13:19:11.574Z,18.75
2019-04-03T13:21:41.828Z,13.62
2019-04-03T13:24:12.519Z,13.45
2019-04-03T13:26:42.105Z,13.32
2019-04-03T13:29:11.300Z,13.10
2019-04-03T13:31:40.804Z,15.58
2019-04-03T13:34:11.817Z,11.22
2019-04-03T13:36:41.131Z,13.98
2019-04-03T13:39:10.831Z,10.90
2019-04-03T13:41:42.359Z,12.07
2019-04-03T13:44:11.336Z,14.15
2019-04-03T13:46:40.958Z,13.03
2019-04-03T13:49:10.413Z,13.72
2019-04-03T13:51:39.672Z,10.85
2019-04-03T13:54:08.857Z,14.05
2019-04-03T13:56:38.035Z,14.68
2019-04-03T13:59:09.781Z,16.00
2019-04-03T14:01:40.247Z,14.95
2019-04-03T14:04:09.408Z,14.95
2019-04-03T14:06:38.846Z,17.42
2019-04-03T14:09:08.513Z,12.95
2019-04-03T14:11:39.388Z,9.13
2019-04-03T14:14:08.885Z,9.38
2019-04-03T14:16:38.238Z,12.78
2019-04-03T14:19:07.542Z,14.68
2019-04-03T14:21:36.816Z,13.62
2019-04-03T14:24:08.252Z,17.05
2019-04-03T14:26:37.079Z,15.85
2019-04-03T14:29:07.888Z,13.35
2019-04-03T14:31:38.197Z,16.55
2019-04-03T14:34:07.489Z,8.88
2019-04-03T14:36:36.910Z,11.40
2019-04-03T14:39:08.855Z,8.93
2019-04-03T14:41:37.864Z,8.35
2019-04-03T14:44:09.085Z,9.30
2019-04-03T14:46:38.167Z,9.90
2019-04-03T14:49:07.728Z,9.70
2019-04-03T14:51:37.014Z,7.85
2019-04-03T14:54:08.233Z,6.35
2019-04-03T14:56:37.191Z,7.90
2019-04-03T14:59:06.524Z,9.23
2019-04-03T15:01:36.355Z,10.10
2019-04-03T15:04:05.826Z,9.85
2019-04-03T15:06:35.866Z,9.18
2019-04-03T15:09:07.224Z,9.58
2019-04-03T15:11:37.106Z,9.03
2019-04-03T15:14:06.426Z,9.48
2019-04-03T15:16:35.695Z,11.97
2019-04-03T15:19:05.117Z,12.43
2019-04-03T15:21:34.426Z,11.38
2019-04-03T15:24:03.688Z,11.70
2019-04-03T15:26:33.221Z,19.23
2019-04-03T15:29:02.403Z,18.85
2019-04-03T15:31:31.613Z,17.65
2019-04-03T15:34:00.992Z,14.50
2019-04-03T15:36:30.234Z,14.58
2019-04-03T15:38:59.938Z,12.33
2019-04-03T15:41:33.030Z,13.68
2019-04-03T15:44:00.526Z,17.20
2019-04-03T15:46:30.412Z,18.37
2019-04-03T15:49:00.982Z,23.87
2019-04-03T15:51:30.311Z,15.93
2019-04-03T15:54:00.200Z,16.02
2019-04-03T15:56:30.073Z,17.77
2019-04-03T15:58:59.485Z,15.90
2019-04-03T16:01:28.884Z,29.92
2019-04-03T16:03:59.953Z,21.00
2019-04-03T16:06:29.411Z,17.87
2019-04-03T16:08:58.997Z,11.25
2019-04-03T16:11:29.737Z,14.93
2019-04-03T16:13:59.290Z,17.15
2019-04-03T16:16:29.681Z,19.92
2019-04-03T16:18:59.496Z,19.12
2019-04-03T16:21:30.601Z,15.00
2019-04-03T16:24:00.520Z,13.95
2019-04-03T16:26:31.474Z,12.98
2019-04-03T16:29:00.897Z,13.35
2019-04-03T16:31:30.459Z,14.78
2019-04-03T16:33:59.875Z,16.52
2019-04-03T16:36:29.101Z,15.05
2019-04-03T16:39:00.694Z,14.90
2019-04-03T16:41:29.286Z,12.13
2019-04-03T16:43:58.533Z,13.15
2019-04-03T16:46:28.616Z,12.85
2019-04-03T16:48:57.992Z,10.98
2019-04-03T16:51:27.301Z,10.15
2019-04-03T16:53:59.523Z,9.23
2019-04-03T16:56:28.689Z,11.03
2019-04-03T16:59:00.794Z,15.03
2019-04-03T17:01:29.583Z,13.48
2019-04-03T17:04:02.876Z,10.05
2019-04-03T17:06:30.367Z,12.65
2019-04-03T17:08:59.962Z,13.20
2019-04-03T17:11:29.559Z,9.53
2019-04-03T17:13:59.461Z,10.15
2019-04-03T17:16:29.622Z,11.28
2019-04-03T17:19:00.280Z,14.43
2019-04-03T17:21:36.834Z,8.35
2019-04-03T17:24:00.448Z,7.85
2019-04-03T17:26:29.777Z,10.93
2019-04-03T17:29:03.920Z,8.58
2019-04-03T17:31:30.093Z,11.22
2019-04-03T17:33:59.552Z,7.80
2019-04-03T17:36:29.162Z,8.60
2019-04-03T17:38:58.771Z,13.75
2019-04-03T17:41:30.384Z,11.03
2019-04-03T17:43:58.998Z,11.65
2019-04-03T17:46:28.161Z,9.28
2019-04-03T17:48:57.577Z,8.83
2019-04-03T17:51:27.525Z,8.23
2019-04-03T17:53:56.778Z,10.32
2019-04-03T17:56:26.128Z,9.65
2019-04-03T17:58:55.469Z,9.18
2019-04-03T18:01:24.938Z,11.20
2019-04-03T18:03:54.288Z,10.53
2019-04-03T18:06:23.598Z,11.03
2019-04-03T18:08:52.866Z,10.23
2019-04-03T18:11:22.139Z,13.70
2019-04-03T18:13:54.634Z,9.85
2019-04-03T18:16:22.511Z,9.58
2019-04-03T18:18:51.786Z,10.65
2019-04-03T18:21:21.079Z,12.13
2019-04-03T18:23:52.672Z,13.25
2019-04-03T18:26:21.311Z,11.35
2019-04-03T18:28:50.658Z,23.52
2019-04-03T18:31:39.369Z,26.05
2019-04-03T18:34:08.656Z,17.10
2019-04-03T18:36:37.914Z,17.67
2019-04-03T18:39:09.733Z,22.32
2019-04-03T18:41:39.613Z,16.48
2019-04-03T18:44:21.315Z,15.08
2019-04-03T18:46:39.973Z,15.72
2019-04-03T18:49:10.476Z,16.12
2019-04-03T18:51:39.771Z,16.37
2019-04-03T18:54:09.788Z,13.72
2019-04-03T18:56:40.283Z,12.13
2019-04-03T18:59:17.540Z,11.48
2019-04-03T19:01:46.853Z,10.68
2019-04-03T19:04:17.242Z,11.73
2019-04-03T19:06:46.530Z,15.15
2019-04-03T19:09:21.048Z,13.75
2019-04-03T19:11:51.340Z,12.07
2019-04-03T19:14:27.174Z,13.95
2019-04-03T19:16:52.074Z,11.63
2019-04-03T19:19:23.602Z,12.80
2019-04-03T19:22:12.407Z,14.47
2019-04-03T19:24:41.826Z,16.67
2019-04-03T19:27:11.213Z,16.40
2019-04-03T19:29:40.683Z,15.15
2019-04-03T19:32:12.773Z,16.05
2019-04-03T19:34:42.361Z,17.07
2019-04-03T19:37:11.778Z,16.07
2019-04-03T19:39:41.502Z,15.45
2019-04-03T19:42:13.308Z,14.38
2019-04-03T19:44:44.691Z,18.37
2019-04-03T19:47:15.332Z,17.07
2019-04-03T19:49:48.001Z,17.37
2019-04-03T19:52:20.476Z,19.98
2019-04-03T19:54:51.523Z,22.35
2019-04-03T19:57:21.848Z,18.15
2019-04-03T19:59:52.186Z,18.20
2019-04-03T20:02:22.674Z,17.87
2019-04-03T20:04:53.141Z,16.30
2019-04-03T20:07:22.659Z,15.95
2019-04-03T20:09:52.144Z,16.50
2019-04-03T20:12:21.498Z,16.73
2019-04-03T20:14:58.168Z,18.67
2019-04-03T20:17:22.782Z,16.25
2019-04-03T20:19:53.479Z,16.48
2019-04-03T20:22:23.642Z,16.95
2019-04-03T20:24:59.757Z,15.90
2019-04-03T20:27:25.319Z,16.23
2019-04-03T20:29:55.478Z,19.50
2019-04-03T20:32:24.957Z,19.20
2019-04-03T20:34:54.263Z,17.48
2019-04-03T20:37:26.191Z,16.05
2019-04-03T20:39:57.880Z,15.93
2019-04-03T20:42:27.021Z,18.98
2019-04-03T20:44:56.387Z,17.75
2019-04-03T20:47:27.444Z,20.35
2019-04-03T20:49:56.950Z,18.35
2019-04-03T20:52:26.249Z,18.87
2019-04-03T20:54:55.584Z,16.05
2019-04-03T20:57:24.968Z,20.90
2019-04-03T21:00:02.252Z,15.50
2019-04-03T21:02:25.297Z,15.63
2019-04-03T21:04:54.946Z,17.82
2019-04-03T21:07:24.623Z,16.35
2019-04-03T21:09:53.909Z,17.00
2019-04-03T21:12:24.301Z,19.10
2019-04-03T21:14:53.577Z,20.27
2019-04-03T21:17:24.096Z,17.12
2019-04-03T21:19:53.731Z,18.92
2019-04-03T21:22:23.030Z,18.62
2019-04-03T21:24:52.368Z,18.50
2019-04-03T21:27:21.660Z,22.22
2019-04-03T21:29:51.010Z,18.85
2019-04-03T21:32:20.295Z,19.27
2019-04-03T21:34:49.567Z,20.82
2019-04-03T21:37:19.995Z,19.23
2019-04-03T21:39:49.230Z,19.87
2019-04-03T21:42:18.412Z,17.73
2019-04-03T21:44:47.779Z,21.62
2019-04-03T21:47:17.002Z,18.57
2019-04-03T21:49:47.666Z,19.40
2019-04-03T21:52:17.305Z,18.07
2019-04-03T21:54:46.628Z,19.82
2019-04-03T21:57:15.966Z,17.55
2019-04-03T21:59:45.420Z,15.35
2019-04-03T22:02:16.206Z,18.30
2019-04-03T22:04:45.695Z,18.92
2019-04-03T22:07:15.039Z,17.35
2019-04-03T22:09:46.013Z,18.07
2019-04-03T22:12:15.344Z,19.65
2019-04-03T22:14:44.899Z,20.77
2019-04-03T22:17:14.223Z,18.67
2019-04-03T22:19:43.387Z,20.48
2019-04-03T22:22:12.641Z,16.97
2019-04-03T22:24:41.801Z,19.62
2019-04-03T22:27:11.527Z,17.02
2019-04-03T22:29:41.251Z,18.02
2019-04-03T22:32:10.419Z,19.92
2019-04-03T22:34:39.752Z,20.55
2019-04-03T22:37:08.986Z,18.07
2019-04-03T22:39:39.067Z,17.10
2019-04-03T22:42:09.114Z,19.57
2019-04-03T22:44:38.337Z,18.65
2019-04-03T22:47:07.515Z,16.70
2019-04-03T22:49:36.838Z,21.07
2019-04-03T22:52:06.890Z,18.05
2019-04-03T22:54:37.112Z,14.73
2019-04-03T22:57:06.369Z,17.85
2019-04-03T22:59:35.619Z,17.40
2019-04-03T23:02:04.947Z,15.90
2019-04-03T23:04:34.254Z,17.20
2019-04-03T23:07:03.459Z,16.93
2019-04-03T23:09:32.702Z,16.70
2019-04-03T23:12:03.095Z,15.53
2019-04-03T23:14:33.034Z,14.28
2019-04-03T23:17:02.511Z,16.73
2019-04-03T23:19:32.474Z,13.93
2019-04-03T23:22:02.025Z,16.02
2019-04-03T23:24:31.196Z,20.45
2019-04-03T23:27:02.429Z,18.77
2019-04-03T23:29:31.314Z,22.00
2019-04-03T23:32:00.651Z,20.10
2019-04-03T23:34:29.841Z,21.35
2019-04-03T23:36:59.073Z,20.88
2019-04-03T23:39:38.251Z,21.75
2019-04-03T23:42:07.550Z,22.17
2019-04-03T23:44:36.760Z,19.27
2019-04-03T23:47:06.094Z,20.25
2019-04-03T23:49:35.474Z,21.60
2019-04-03T23:52:04.643Z,21.65
2019-04-03T23:54:34.580Z,19.90
2019-04-03T23:57:04.209Z,21.73
2019-04-03T23:59:33.476Z,22.48
